createdAt,value
2022-10-11T00:02:03.991Z,1.26
2022-10-11T00:04:50.150Z,1.24
2022-10-11T00:07:37.224Z,1.22
2022-10-11T00:10:22.781Z,1.20
2022-10-11T00:13:08.041Z,1.18
2022-10-11T00:15:53.471Z,1.14
2022-10-11T00:18:39.254Z,1.13
2022-10-11T00:21:24.636Z,1.10
2022-10-11T00:24:10.385Z,1.08
2022-10-11T00:26:55.218Z,0.99
2022-10-11T00:29:40.180Z,0.98
2022-10-11T00:32:25.537Z,0.96
2022-10-11T00:35:10.483Z,0.90
2022-10-11T00:37:55.783Z,0.90
2022-10-11T00:40:40.893Z,0.86
2022-10-11T00:43:28.406Z,0.84
2022-10-11T00:46:13.253Z,0.80
2022-10-11T00:49:06.835Z,0.77
2022-10-11T00:52:01.184Z,0.78
2022-10-11T00:54:48.420Z,0.73
2022-10-11T00:57:36.455Z,0.71
2022-10-11T01:00:21.412Z,0.73
2022-10-11T01:03:06.629Z,0.75
2022-10-11T01:05:51.829Z,0.69
2022-10-11T01:08:37.523Z,0.70
2022-10-11T01:11:25.380Z,0.69
2022-10-11T01:14:18.121Z,0.68
2022-10-11T01:17:12.228Z,0.65
2022-10-11T01:20:09.365Z,0.61
2022-10-11T01:23:31.898Z,0.61
2022-10-11T01:27:14.299Z,0.61
2022-10-11T01:30:17.706Z,0.57
2022-10-11T01:33:44.344Z,0.56
2022-10-11T01:36:37.641Z,0.53
2022-10-11T01:39:25.560Z,0.53
2022-10-11T01:42:12.738Z,0.50
2022-10-11T01:44:58.979Z,0.49
2022-10-11T01:47:45.328Z,0.46
2022-10-11T01:50:41.008Z,0.48
2022-10-11T01:53:58.928Z,0.49
2022-10-11T01:56:56.163Z,0.49
2022-10-11T01:59:53.607Z,0.51
2022-10-11T02:02:57.150Z,0.51
2022-10-11T02:05:48.300Z,0.51
2022-10-11T02:08:47.031Z,0.49
2022-10-11T02:11:34.344Z,0.43
2022-10-11T02:14:26.170Z,0.42
2022-10-11T02:17:16.042Z,0.42
2022-10-11T02:20:05.910Z,0.40
2022-10-11T02:22:56.141Z,0.40
2022-10-11T02:25:44.186Z,0.38
2022-10-11T02:28:34.863Z,0.35
2022-10-11T02:31:21.664Z,0.35
2022-10-11T02:34:12.665Z,0.35
2022-10-11T02:37:18.830Z,0.30
2022-10-11T02:40:34.660Z,0.28
2022-10-11T02:43:25.530Z,0.27
2022-10-11T02:46:11.548Z,0.22
2022-10-11T02:48:59.164Z,0.24
2022-10-11T02:51:44.308Z,0.21
2022-10-11T02:54:29.250Z,0.24
2022-10-11T02:57:14.217Z,0.25
2022-10-11T02:59:59.249Z,0.27
2022-10-11T03:02:44.259Z,0.27
2022-10-11T03:05:29.657Z,0.32
2022-10-11T03:08:14.772Z,0.35
2022-10-11T03:10:59.804Z,0.36
2022-10-11T03:13:44.616Z,0.36
2022-10-11T03:16:29.605Z,0.42
2022-10-11T03:19:18.399Z,0.51
2022-10-11T03:22:04.670Z,0.56
2022-10-11T03:24:49.862Z,0.57
2022-10-11T03:27:35.099Z,0.56
2022-10-11T03:30:19.793Z,0.53
2022-10-11T03:33:04.807Z,0.49
2022-10-11T03:35:50.031Z,0.44
2022-10-11T03:38:34.765Z,0.39
2022-10-11T03:41:19.461Z,0.34
2022-10-11T03:44:04.955Z,0.29
2022-10-11T03:46:49.632Z,0.25
2022-10-11T03:49:34.733Z,0.20
2022-10-11T03:52:19.720Z,0.21
2022-10-11T03:55:05.929Z,0.17
2022-10-11T03:57:50.758Z,0.16
2022-10-11T04:00:36.161Z,0.16
2022-10-11T04:03:21.360Z,0.13
2022-10-11T04:06:06.355Z,0.14
2022-10-11T04:08:51.673Z,0.11
2022-10-11T04:11:36.648Z,0.10
2022-10-11T04:14:21.495Z,0.11
2022-10-11T04:17:06.544Z,0.08
2022-10-11T04:19:51.475Z,0.10
2022-10-11T04:22:37.826Z,0.07
2022-10-11T04:25:22.910Z,0.10
2022-10-11T04:28:08.600Z,0.10
2022-10-11T04:30:53.737Z,0.14
2022-10-11T04:33:38.873Z,0.16
2022-10-11T04:36:24.012Z,0.21
2022-10-11T04:39:08.965Z,0.27
2022-10-11T04:41:53.998Z,0.29
2022-10-11T04:44:39.128Z,0.37
2022-10-11T04:47:24.055Z,0.43
2022-10-11T04:50:09.253Z,0.55
2022-10-11T04:52:53.976Z,0.65
2022-10-11T04:55:39.156Z,0.75
2022-10-11T04:58:24.020Z,0.88
2022-10-11T05:01:09.750Z,1.04
2022-10-11T05:03:54.468Z,1.22
2022-10-11T05:06:39.500Z,1.39
2022-10-11T05:09:24.464Z,1.58
2022-10-11T05:12:09.501Z,1.82
2022-10-11T05:14:54.500Z,2.00
2022-10-11T05:17:39.444Z,2.23
2022-10-11T05:20:24.407Z,2.40
2022-10-11T05:23:09.490Z,2.61
2022-10-11T05:25:54.493Z,2.83
2022-10-11T05:28:39.533Z,3.06
2022-10-11T05:31:24.372Z,3.24
2022-10-11T05:34:09.367Z,3.45
2022-10-11T05:36:55.896Z,3.66
2022-10-11T05:39:40.516Z,3.85
2022-10-11T05:42:25.336Z,4.07
2022-10-11T05:45:10.478Z,4.31
2022-10-11T05:47:55.461Z,4.57
2022-10-11T05:50:40.845Z,4.84
2022-10-11T05:53:26.185Z,5.13
2022-10-11T05:56:19.642Z,5.40
2022-10-11T05:59:05.017Z,5.66
2022-10-11T06:01:49.782Z,5.91
2022-10-11T06:04:38.068Z,6.11
2022-10-11T06:07:23.153Z,6.33
2022-10-11T06:10:09.094Z,6.57
2022-10-11T06:12:53.887Z,6.76
2022-10-11T06:15:39.880Z,6.99
2022-10-11T06:18:24.670Z,7.26
2022-10-11T06:21:09.707Z,7.41
2022-10-11T06:24:00.904Z,7.61
2022-10-11T06:26:48.584Z,7.88
2022-10-11T06:29:34.104Z,8.13
2022-10-11T06:32:19.625Z,8.40
2022-10-11T06:35:05.546Z,8.66
2022-10-11T06:37:50.869Z,8.85
2022-10-11T06:40:36.068Z,9.10
2022-10-11T06:43:21.058Z,9.33
2022-10-11T06:46:06.474Z,9.54
2022-10-11T06:48:53.366Z,9.80
2022-10-11T06:51:38.222Z,9.98
2022-10-11T06:54:23.413Z,10.22
2022-10-11T06:57:08.440Z,10.44
2022-10-11T06:59:53.355Z,10.65
2022-10-11T07:02:38.210Z,10.89
2022-10-11T07:05:23.179Z,10.95
2022-10-11T07:08:08.120Z,11.16
2022-10-11T07:10:53.495Z,11.32
2022-10-11T07:13:39.562Z,11.61
2022-10-11T07:16:25.661Z,11.89
2022-10-11T07:19:10.722Z,12.14
2022-10-11T07:21:55.618Z,12.33
2022-10-11T07:24:40.464Z,12.51
2022-10-11T07:27:25.480Z,12.65
2022-10-11T07:30:10.787Z,12.92
2022-10-11T07:32:55.689Z,13.13
2022-10-11T07:35:42.852Z,13.37
2022-10-11T07:38:32.132Z,13.57
2022-10-11T07:41:18.087Z,13.74
2022-10-11T07:44:03.173Z,13.92
2022-10-11T07:46:48.139Z,14.18
2022-10-11T07:49:33.124Z,14.37
2022-10-11T07:52:18.162Z,14.49
2022-10-11T07:55:03.402Z,14.78
2022-10-11T07:57:48.116Z,14.75
2022-10-11T08:00:33.357Z,14.61
2022-10-11T08:03:18.115Z,14.70
2022-10-11T08:06:06.317Z,14.89
2022-10-11T08:08:51.389Z,15.13
2022-10-11T08:11:37.274Z,15.39
2022-10-11T08:14:22.701Z,15.78
2022-10-11T08:17:08.070Z,15.99
2022-10-11T08:19:52.981Z,16.17
2022-10-11T08:22:38.743Z,16.42
2022-10-11T08:25:23.409Z,16.15
2022-10-11T08:28:09.573Z,16.35
2022-10-11T08:30:54.772Z,16.36
2022-10-11T08:33:39.760Z,16.09
2022-10-11T08:36:25.291Z,16.08
2022-10-11T08:39:10.609Z,16.36
2022-10-11T08:42:02.923Z,16.48
2022-10-11T08:45:12.128Z,16.66
2022-10-11T08:48:08.057Z,16.69
2022-10-11T08:50:54.304Z,16.77
2022-10-11T08:53:53.832Z,16.82
2022-10-11T08:56:41.249Z,16.97
2022-10-11T08:59:39.007Z,16.70
2022-10-11T09:03:06.350Z,16.85
2022-10-11T09:05:58.021Z,16.95
2022-10-11T09:08:45.843Z,16.96
2022-10-11T09:11:34.069Z,16.92
2022-10-11T09:14:34.455Z,17.04
2022-10-11T09:17:50.266Z,17.31
2022-10-11T09:20:53.842Z,17.32
2022-10-11T09:23:57.313Z,17.38
2022-10-11T09:26:54.048Z,17.71
2022-10-11T09:30:13.943Z,17.83
2022-10-11T09:33:08.161Z,18.04
2022-10-11T09:35:56.406Z,17.96
2022-10-11T09:39:06.501Z,17.65
2022-10-11T09:42:18.913Z,17.73
2022-10-11T09:45:18.843Z,17.90
2022-10-11T09:48:06.915Z,18.26
2022-10-11T09:50:57.818Z,18.43
2022-10-11T09:53:53.808Z,18.67
2022-10-11T09:56:44.832Z,18.89
2022-10-11T09:59:34.664Z,19.36
2022-10-11T10:02:22.546Z,19.57
2022-10-11T10:05:10.209Z,19.77
2022-10-11T10:08:10.665Z,19.71
2022-10-11T10:10:59.250Z,19.95
2022-10-11T10:13:50.763Z,20.14
2022-10-11T10:16:36.756Z,20.21
2022-10-11T10:19:22.996Z,19.84
2022-10-11T10:22:19.127Z,19.86
2022-10-11T10:25:07.518Z,20.04
2022-10-11T10:28:04.352Z,20.39
2022-10-11T10:30:59.445Z,20.59
2022-10-11T10:33:49.677Z,20.96
2022-10-11T10:36:38.816Z,21.22
2022-10-11T10:39:48.179Z,21.75
2022-10-11T10:42:33.392Z,21.92
2022-10-11T10:45:25.205Z,22.13
2022-10-11T10:48:25.410Z,22.35
2022-10-11T10:51:16.412Z,22.69
2022-10-11T10:54:32.191Z,22.89
2022-10-11T10:57:28.001Z,22.43
2022-10-11T11:00:18.924Z,21.69
2022-10-11T11:03:28.792Z,21.66
2022-10-11T11:06:47.270Z,22.00
2022-10-11T11:09:38.064Z,22.29
2022-10-11T11:12:41.552Z,22.86
2022-10-11T11:15:58.645Z,22.97
2022-10-11T11:19:14.465Z,23.20
2022-10-11T11:22:15.711Z,22.56
2022-10-11T11:25:25.394Z,22.64
2022-10-11T11:28:30.917Z,22.62
2022-10-11T11:31:37.314Z,21.83
2022-10-11T11:34:50.501Z,21.88
2022-10-11T11:37:39.421Z,21.95
2022-10-11T11:40:34.921Z,22.25
2022-10-11T11:43:27.585Z,22.15
2022-10-11T11:46:17.065Z,22.51
2022-10-11T11:49:13.099Z,22.36
2022-10-11T11:51:59.313Z,22.44
2022-10-11T11:54:51.037Z,21.87
2022-10-11T11:58:07.547Z,21.61
2022-10-11T12:01:17.885Z,21.23
2022-10-11T12:04:21.700Z,21.16
2022-10-11T12:07:17.955Z,21.35
2022-10-11T12:10:28.117Z,21.79
2022-10-11T12:13:20.289Z,21.98
2022-10-11T12:16:10.394Z,22.19
2022-10-11T12:19:03.179Z,22.07
2022-10-11T12:22:20.032Z,21.71
2022-10-11T12:25:08.551Z,21.83
2022-10-11T12:27:56.293Z,21.84
2022-10-11T12:30:46.360Z,21.92
2022-10-11T12:33:32.030Z,21.77
2022-10-11T12:36:31.870Z,21.65
2022-10-11T12:39:19.598Z,21.48
2022-10-11T12:42:27.422Z,21.72
2022-10-11T12:45:12.671Z,21.80
2022-10-11T12:48:16.293Z,20.98
2022-10-11T12:51:44.025Z,20.84
2022-10-11T12:54:49.899Z,20.26
2022-10-11T12:58:06.997Z,19.84
2022-10-11T13:00:51.708Z,20.08
2022-10-11T13:03:41.007Z,20.13
2022-10-11T13:06:30.524Z,20.08
2022-10-11T13:09:29.298Z,20.02
2022-10-11T13:12:17.275Z,19.99
2022-10-11T13:15:06.496Z,20.12
2022-10-11T13:17:58.330Z,20.08
2022-10-11T13:20:44.204Z,19.88
2022-10-11T13:23:37.256Z,19.78
2022-10-11T13:26:22.339Z,19.82
2022-10-11T13:29:16.890Z,19.66
2022-10-11T13:32:07.149Z,19.49
2022-10-11T13:34:57.807Z,19.58
2022-10-11T13:37:47.869Z,19.43
2022-10-11T13:40:32.975Z,19.33
2022-10-11T13:43:24.889Z,19.07
2022-10-11T13:46:19.097Z,19.17
2022-10-11T13:49:23.992Z,19.23
2022-10-11T13:52:22.314Z,19.11
2022-10-11T13:55:12.992Z,18.99
2022-10-11T13:58:00.373Z,18.74
2022-10-11T14:01:01.552Z,18.47
2022-10-11T14:03:52.729Z,18.16
2022-10-11T14:06:44.636Z,17.86
2022-10-11T14:09:36.375Z,17.56
2022-10-11T14:12:42.632Z,17.12
2022-10-11T14:15:36.037Z,16.82
2022-10-11T14:18:42.348Z,16.66
2022-10-11T14:21:45.929Z,16.39
2022-10-11T14:24:30.535Z,16.06
2022-10-11T14:27:22.584Z,15.81
2022-10-11T14:30:30.432Z,15.62
2022-10-11T14:33:15.264Z,15.50
2022-10-11T14:36:00.279Z,15.42
2022-10-11T14:38:45.250Z,15.38
2022-10-11T14:41:30.392Z,15.31
2022-10-11T14:44:16.254Z,15.23
2022-10-11T14:47:05.938Z,15.11
2022-10-11T14:49:51.911Z,15.00
2022-10-11T14:52:36.692Z,14.91
2022-10-11T14:55:22.265Z,14.84
2022-10-11T14:58:09.075Z,14.72
2022-10-11T15:00:53.961Z,14.61
2022-10-11T15:03:39.513Z,14.47
2022-10-11T15:06:28.473Z,14.35
2022-10-11T15:09:13.608Z,14.25
2022-10-11T15:11:58.868Z,14.13
2022-10-11T15:14:43.897Z,14.01
2022-10-11T15:17:28.804Z,13.88
2022-10-11T15:20:38.573Z,13.72
2022-10-11T15:23:24.505Z,13.56
2022-10-11T15:26:13.958Z,13.45
2022-10-11T15:28:58.864Z,13.33
2022-10-11T15:31:45.319Z,13.32
2022-10-11T15:34:30.312Z,13.28
2022-10-11T15:37:15.116Z,13.25
2022-10-11T15:40:00.067Z,13.25
2022-10-11T15:42:45.948Z,13.27
2022-10-11T15:45:31.102Z,13.27
2022-10-11T15:48:21.289Z,13.26
2022-10-11T15:51:06.285Z,13.29
2022-10-11T15:53:50.963Z,13.31
2022-10-11T15:56:35.988Z,13.32
2022-10-11T15:59:20.941Z,13.32
2022-10-11T16:02:13.323Z,13.34
2022-10-11T16:04:58.120Z,13.30
2022-10-11T16:07:43.119Z,13.28
2022-10-11T16:10:28.005Z,13.26
2022-10-11T16:13:13.784Z,13.26
2022-10-11T16:16:01.672Z,13.26
2022-10-11T16:18:49.826Z,13.25
2022-10-11T16:21:34.601Z,13.24
2022-10-11T16:24:20.030Z,13.24
2022-10-11T16:27:05.084Z,13.24
2022-10-11T16:29:50.370Z,13.23
2022-10-11T16:32:35.504Z,13.21
2022-10-11T16:35:20.310Z,13.18
2022-10-11T16:38:05.321Z,13.15
2022-10-11T16:40:50.584Z,13.11
2022-10-11T16:43:35.165Z,13.08
2022-10-11T16:46:21.384Z,13.04
2022-10-11T16:49:06.205Z,12.98
2022-10-11T16:51:53.400Z,12.93
2022-10-11T16:54:38.923Z,12.88
2022-10-11T16:57:23.929Z,12.82
2022-10-11T17:00:09.402Z,12.86
2022-10-11T17:02:54.554Z,12.90
2022-10-11T17:05:39.273Z,12.94
2022-10-11T17:08:24.437Z,12.96
2022-10-11T17:11:09.549Z,12.94
2022-10-11T17:13:55.357Z,12.90
2022-10-11T17:16:40.570Z,12.91
2022-10-11T17:19:25.684Z,12.87
2022-10-11T17:22:12.071Z,12.91
2022-10-11T17:24:57.025Z,12.90
2022-10-11T17:27:42.111Z,12.89
2022-10-11T17:30:27.059Z,12.91
2022-10-11T17:33:12.126Z,12.92
2022-10-11T17:35:59.218Z,12.94
2022-10-11T17:38:44.315Z,12.93
2022-10-11T17:41:32.189Z,12.91
2022-10-11T17:44:18.068Z,12.86
2022-10-11T17:47:03.790Z,12.80
2022-10-11T17:49:49.003Z,12.80
2022-10-11T17:52:33.789Z,12.73
2022-10-11T17:55:18.617Z,12.68
2022-10-11T17:58:03.597Z,12.61
2022-10-11T18:00:48.553Z,12.49
2022-10-11T18:03:33.911Z,12.40
2022-10-11T18:06:19.000Z,12.29
2022-10-11T18:09:05.169Z,12.22
2022-10-11T18:11:51.299Z,12.13
2022-10-11T18:14:36.189Z,12.01
2022-10-11T18:17:20.968Z,11.87
2022-10-11T18:20:06.557Z,11.80
2022-10-11T18:22:54.816Z,11.66
2022-10-11T18:25:39.866Z,11.57
2022-10-11T18:28:25.179Z,11.44
2022-10-11T18:31:14.357Z,11.37
2022-10-11T18:33:59.692Z,11.26
2022-10-11T18:36:44.951Z,11.15
2022-10-11T18:39:30.007Z,11.00
2022-10-11T18:42:14.962Z,10.89
2022-10-11T18:44:59.992Z,10.82
2022-10-11T18:47:44.985Z,10.74
2022-10-11T18:50:34.281Z,10.68
2022-10-11T18:53:19.123Z,10.61
2022-10-11T18:56:07.119Z,10.56
2022-10-11T18:58:53.901Z,10.46
2022-10-11T19:01:41.248Z,10.39
2022-10-11T19:04:26.067Z,10.34
2022-10-11T19:07:10.922Z,10.27
2022-10-11T19:09:55.836Z,10.20
2022-10-11T19:12:40.860Z,10.27
2022-10-11T19:15:28.743Z,10.27
2022-10-11T19:18:18.293Z,10.15
2022-10-11T19:21:08.568Z,10.07
2022-10-11T19:23:55.189Z,9.95
2022-10-11T19:26:41.589Z,9.85
2022-10-11T19:29:28.187Z,9.76
2022-10-11T19:32:12.981Z,9.65
2022-10-11T19:34:57.996Z,9.58
2022-10-11T19:37:42.920Z,9.52
2022-10-11T19:40:30.245Z,9.50
2022-10-11T19:43:17.730Z,9.58
2022-10-11T19:46:04.742Z,9.57
2022-10-11T19:48:50.579Z,9.51
2022-10-11T19:51:36.786Z,9.46
2022-10-11T19:54:22.358Z,9.43
2022-10-11T19:57:08.910Z,9.44
2022-10-11T19:59:53.611Z,9.43
2022-10-11T20:02:38.816Z,9.43
2022-10-11T20:05:23.858Z,9.40
2022-10-11T20:08:08.767Z,9.35
2022-10-11T20:10:54.461Z,9.31
2022-10-11T20:13:39.330Z,9.28
2022-10-11T20:16:27.275Z,9.23
2022-10-11T20:19:12.132Z,9.17
2022-10-11T20:21:57.195Z,9.13
2022-10-11T20:24:42.164Z,9.10
2022-10-11T20:27:26.956Z,9.05
2022-10-11T20:30:14.080Z,8.95
2022-10-11T20:32:58.894Z,8.91
2022-10-11T20:35:43.930Z,8.88
2022-10-11T20:38:30.212Z,8.81
2022-10-11T20:41:21.173Z,8.80
2022-10-11T20:44:07.163Z,8.74
2022-10-11T20:46:52.263Z,8.68
2022-10-11T20:49:37.203Z,8.70
2022-10-11T20:52:22.171Z,8.68
2022-10-11T20:55:07.657Z,8.70
2022-10-11T20:57:52.203Z,8.72
2022-10-11T21:00:39.333Z,8.71
2022-10-11T21:03:24.233Z,8.77
2022-10-11T21:06:10.158Z,8.78
2022-10-11T21:08:55.865Z,8.79
2022-10-11T21:11:41.045Z,8.78
2022-10-11T21:14:26.041Z,8.79
2022-10-11T21:17:10.947Z,8.76
2022-10-11T21:19:58.061Z,8.78
2022-10-11T21:22:43.145Z,8.75
2022-10-11T21:25:27.979Z,8.77
2022-10-11T21:28:13.073Z,8.76
2022-10-11T21:31:09.547Z,8.74
2022-10-11T21:33:54.338Z,8.67
2022-10-11T21:36:39.259Z,8.61
2022-10-11T21:39:24.208Z,8.64
2022-10-11T21:42:09.135Z,8.69
2022-10-11T21:44:54.225Z,8.78
2022-10-11T21:47:39.947Z,8.89
2022-10-11T21:50:24.917Z,8.98
2022-10-11T21:53:09.977Z,9.09
2022-10-11T21:55:59.101Z,9.17
2022-10-11T21:58:47.900Z,9.23
2022-10-11T22:01:32.850Z,9.33
2022-10-11T22:04:17.749Z,9.42
2022-10-11T22:07:02.812Z,9.50
2022-10-11T22:09:47.774Z,9.57
2022-10-11T22:12:33.094Z,9.59
2022-10-11T22:15:18.183Z,9.61
2022-10-11T22:18:03.534Z,9.70
2022-10-11T22:20:48.499Z,9.72
2022-10-11T22:23:33.664Z,9.81
2022-10-11T22:26:26.595Z,9.85
2022-10-11T22:29:11.599Z,9.87
2022-10-11T22:31:56.657Z,9.86
2022-10-11T22:34:41.902Z,9.87
2022-10-11T22:37:26.412Z,9.87
2022-10-11T22:40:11.772Z,9.85
2022-10-11T22:42:56.421Z,9.85
2022-10-11T22:45:41.806Z,9.85
2022-10-11T22:48:27.107Z,9.86
2022-10-11T22:51:12.181Z,9.86
2022-10-11T22:53:57.173Z,9.86
2022-10-11T22:56:42.089Z,9.88
2022-10-11T22:59:27.185Z,9.90
2022-10-11T23:02:11.928Z,9.92
2022-10-11T23:04:57.714Z,9.94
2022-10-11T23:07:42.399Z,9.99
2022-10-11T23:10:27.422Z,10.00
2022-10-11T23:13:12.364Z,9.99
2022-10-11T23:15:57.279Z,10.00
2022-10-11T23:18:42.428Z,10.02
2022-10-11T23:21:27.229Z,10.00
2022-10-11T23:24:12.344Z,10.00
2022-10-11T23:26:57.189Z,10.00
2022-10-11T23:29:42.043Z,10.01
2022-10-11T23:32:26.946Z,10.05
2022-10-11T23:35:11.875Z,10.08
2022-10-11T23:37:57.031Z,10.09
2022-10-11T23:40:42.103Z,10.13
2022-10-11T23:43:27.031Z,10.15
2022-10-11T23:46:11.887Z,10.17
2022-10-11T23:48:56.885Z,10.19
2022-10-11T23:51:41.780Z,10.16
2022-10-11T23:54:26.930Z,10.21
2022-10-11T23:57:12.009Z,10.21
2022-10-11T23:59:56.663Z,10.19
